createdAt,value
2016-05-15T00:00:29.796Z,0
2016-05-15T00:01:30.002Z,0
2016-05-15T00:02:30.004Z,0
2016-05-15T00:03:29.899Z,0
2016-05-15T00:04:30.324Z,0
2016-05-15T00:05:29.951Z,0
2016-05-15T00:06:29.985Z,0
2016-05-15T00:07:30.174Z,0
2016-05-15T00:08:30.020Z,0
2016-05-15T00:09:30.226Z,0
2016-05-15T00:10:30.261Z,0
2016-05-15T00:11:30.279Z,0
2016-05-15T00:12:30.313Z,0
2016-05-15T00:13:30.190Z,0
2016-05-15T00:14:30.209Z,0
2016-05-15T00:15:30.399Z,0
2016-05-15T00:16:30.417Z,0
2016-05-15T00:17:30.451Z,0
2016-05-15T00:18:30.189Z,0
2016-05-15T00:19:30.519Z,0
2016-05-15T00:20:30.553Z,0
2016-05-15T00:21:30.587Z,0
2016-05-15T00:22:30.621Z,0
2016-05-15T00:23:30.656Z,0
2016-05-15T00:24:30.673Z,0
2016-05-15T00:25:30.692Z,0
2016-05-15T00:26:30.757Z,0
2016-05-15T00:27:30.775Z,0
2016-05-15T00:28:30.793Z,0
2016-05-15T00:29:30.671Z,0
2016-05-15T00:30:30.846Z,0
2016-05-15T00:31:30.896Z,0
2016-05-15T00:32:30.914Z,0
2016-05-15T00:33:30.963Z,0
2016-05-15T00:34:31.169Z,0
2016-05-15T00:35:30.984Z,0
2016-05-15T00:36:30.877Z,0
2016-05-15T00:37:31.068Z,0
2016-05-15T00:38:31.085Z,0
2016-05-15T00:39:31.104Z,0
2016-05-15T00:40:30.998Z,0
2016-05-15T00:41:31.187Z,0
2016-05-15T00:42:31.237Z,0
2016-05-15T00:43:31.256Z,0
2016-05-15T00:44:31.274Z,0
2016-05-15T00:45:31.292Z,0
2016-05-15T00:46:31.326Z,0
2016-05-15T00:47:31.360Z,0
2016-05-15T00:48:31.394Z,0
2016-05-15T00:49:31.273Z,0
2016-05-15T00:50:31.447Z,0
2016-05-15T00:51:31.481Z,0
2016-05-15T00:52:31.498Z,0
2016-05-15T00:53:31.533Z,0
2016-05-15T00:54:31.597Z,0
2016-05-15T00:55:31.272Z,0
2016-05-15T00:56:31.634Z,0
2016-05-15T00:57:31.653Z,0
2016-05-15T00:58:31.686Z,0
2016-05-15T00:59:31.549Z,0
2016-05-15T01:00:31.614Z,0
2016-05-15T01:01:31.616Z,0
2016-05-15T01:02:31.822Z,0
2016-05-15T01:03:50.060Z,0
2016-05-15T01:04:31.735Z,0
2016-05-15T01:05:31.893Z,0
2016-05-15T01:06:31.771Z,0
2016-05-15T01:07:31.805Z,0
2016-05-15T01:08:31.995Z,0
2016-05-15T01:09:32.029Z,0
2016-05-15T01:10:32.047Z,0
2016-05-15T01:11:32.082Z,0
2016-05-15T01:12:31.959Z,0
2016-05-15T01:13:31.977Z,0
2016-05-15T01:14:32.011Z,0
2016-05-15T01:15:32.201Z,0
2016-05-15T01:16:32.079Z,0
2016-05-15T01:17:32.253Z,0
2016-05-15T01:18:32.678Z,0
2016-05-15T01:19:32.946Z,0
2016-05-15T01:20:32.370Z,0
2016-05-15T01:21:32.374Z,0
2016-05-15T01:22:32.251Z,0
2016-05-15T01:23:32.145Z,0
2016-05-15T01:24:32.475Z,0
2016-05-15T01:25:32.494Z,0
2016-05-15T01:26:32.372Z,0
2016-05-15T01:27:32.405Z,0
2016-05-15T01:28:32.580Z,0
2016-05-15T01:29:32.614Z,0
2016-05-15T01:30:32.647Z,0
2016-05-15T01:31:32.525Z,0
2016-05-15T01:32:32.544Z,0
2016-05-15T01:33:32.813Z,0
2016-05-15T01:34:32.783Z,0
2016-05-15T01:35:32.786Z,0
2016-05-15T01:36:33.430Z,0
2016-05-15T01:37:32.854Z,0
2016-05-15T01:38:47.044Z,0
2016-05-15T01:39:32.766Z,0
2016-05-15T01:40:32.940Z,0
2016-05-15T01:41:32.974Z,0
2016-05-15T01:42:33.007Z,0
2016-05-15T01:43:32.870Z,0
2016-05-15T01:44:33.060Z,0
2016-05-15T01:45:33.094Z,0
2016-05-15T01:46:32.956Z,0
2016-05-15T01:47:33.350Z,0
2016-05-15T01:48:33.337Z,0
2016-05-15T01:49:33.387Z,0
2016-05-15T01:50:33.092Z,0
2016-05-15T01:51:33.282Z,0
2016-05-15T01:52:33.159Z,0
2016-05-15T01:53:33.320Z,0
2016-05-15T01:54:33.353Z,0
2016-05-15T01:55:33.403Z,0
2016-05-15T01:56:33.405Z,0
2016-05-15T01:57:33.455Z,0
2016-05-15T01:59:33.725Z,0
2016-05-15T02:00:33.416Z,0
2016-05-15T02:01:33.263Z,0
2016-05-15T02:02:33.797Z,0
2016-05-15T02:03:33.471Z,0
2016-05-15T02:04:33.661Z,0
2016-05-15T02:05:34.085Z,0
2016-05-15T02:06:33.744Z,0
2016-05-15T02:07:48.091Z,0
2016-05-15T02:08:34.187Z,0
2016-05-15T02:09:33.644Z,0
2016-05-15T02:10:33.677Z,0
2016-05-15T02:11:48.008Z,0
2016-05-15T02:13:34.139Z,0
2016-05-15T02:14:33.969Z,0
2016-05-15T02:15:34.253Z,0
2016-05-15T02:16:34.507Z,0
2016-05-15T02:17:48.696Z,0
2016-05-15T02:18:34.651Z,0
2016-05-15T02:22:04.129Z,0
2016-05-15T02:22:34.850Z,0
2016-05-15T02:24:04.790Z,0
2016-05-15T02:25:02.778Z,0
2016-05-15T02:25:49.702Z,0
2016-05-15T02:30:07.119Z,0
2016-05-15T02:31:02.731Z,0
2016-05-15T02:31:51.061Z,0
2016-05-15T02:33:45.380Z,0
2016-05-15T02:38:59.940Z,0
2016-05-15T02:39:45.818Z,0
2016-05-15T02:41:45.807Z,0
2016-05-15T02:42:45.654Z,0
2016-05-15T02:43:59.626Z,0
2016-05-15T02:44:45.738Z,0
2016-05-15T02:45:59.443Z,0
2016-05-15T02:46:59.509Z,0
2016-05-15T02:47:59.792Z,0
2016-05-15T02:49:00.639Z,0
2016-05-15T02:50:13.751Z,0
2016-05-15T02:50:45.956Z,0
2016-05-15T02:51:46.132Z,0
2016-05-15T02:52:59.696Z,0
2016-05-15T02:53:45.620Z,0
2016-05-15T02:54:45.389Z,0
2016-05-15T02:55:46.017Z,0
2016-05-15T02:56:45.629Z,4
2016-05-15T02:57:45.725Z,4
2016-05-15T02:58:59.901Z,0
2016-05-15T03:00:45.983Z,4
2016-05-15T03:02:45.598Z,0
2016-05-15T03:03:46.600Z,4
2016-05-15T03:04:49.525Z,8
2016-05-15T03:06:00.044Z,4
2016-05-15T03:07:47.440Z,8
2016-05-15T03:08:46.099Z,8
2016-05-15T03:11:00.276Z,12
2016-05-15T03:11:47.513Z,12
2016-05-15T03:13:00.297Z,16
2016-05-15T03:15:09.177Z,20
2016-05-15T03:15:55.087Z,24
2016-05-15T03:16:55.543Z,24
2016-05-15T03:18:55.641Z,28
2016-05-15T03:19:57.440Z,32
2016-05-15T03:20:56.897Z,36
2016-05-15T03:21:55.884Z,44
2016-05-15T03:22:56.386Z,48
2016-05-15T03:24:23.640Z,56
2016-05-15T03:26:09.566Z,60
2016-05-15T03:26:57.648Z,68
2016-05-15T03:27:55.869Z,68
2016-05-15T03:30:33.486Z,92
2016-05-15T03:31:19.173Z,100
2016-05-15T03:33:05.241Z,120
2016-05-15T03:34:04.556Z,132
2016-05-15T03:35:04.653Z,140
2016-05-15T03:37:05.236Z,160
2016-05-15T03:38:05.583Z,160
2016-05-15T03:39:05.039Z,156
2016-05-15T03:40:19.026Z,176
2016-05-15T03:41:05.529Z,196
2016-05-15T03:42:19.828Z,224
2016-05-15T03:43:19.331Z,252
2016-05-15T03:44:19.521Z,284
2016-05-15T03:45:19.007Z,304
2016-05-15T03:46:05.433Z,320
2016-05-15T03:47:19.404Z,352
2016-05-15T03:48:19.437Z,364
2016-05-15T03:49:04.785Z,372
2016-05-15T03:50:33.212Z,400
2016-05-15T03:51:05.306Z,404
2016-05-15T03:52:21.995Z,424
2016-05-15T03:53:05.265Z,436
2016-05-15T03:55:05.519Z,472
2016-05-15T03:56:06.913Z,484
2016-05-15T03:57:19.259Z,520
2016-05-15T03:58:20.090Z,572
2016-05-15T03:59:05.202Z,628
2016-05-15T04:00:05.033Z,696
2016-05-15T04:02:05.506Z,832
2016-05-15T04:03:05.759Z,912
2016-05-15T04:04:05.481Z,1004
2016-05-15T04:05:05.390Z,1076
2016-05-15T04:06:05.377Z,1120
2016-05-15T04:07:05.645Z,1164
2016-05-15T04:08:05.680Z,1188
2016-05-15T04:09:05.447Z,1236
2016-05-15T04:10:19.622Z,1256
2016-05-15T04:11:05.703Z,1228
2016-05-15T04:12:05.753Z,1200
2016-05-15T04:13:19.943Z,1208
2016-05-15T04:15:05.636Z,1256
2016-05-15T04:16:05.638Z,1304
2016-05-15T04:17:05.656Z,1356
2016-05-15T04:18:05.722Z,1440
2016-05-15T04:19:06.881Z,1844
2016-05-15T04:20:34.074Z,2604
2016-05-15T04:21:19.949Z,2560
2016-05-15T04:22:05.858Z,1972
2016-05-15T04:23:05.892Z,1556
2016-05-15T04:24:05.894Z,3360
2016-05-15T04:25:06.366Z,2288
2016-05-15T04:26:06.071Z,2140
2016-05-15T04:27:20.153Z,2080
2016-05-15T04:28:05.983Z,2592
2016-05-15T04:29:05.736Z,4164
2016-05-15T04:30:20.411Z,2160
2016-05-15T04:31:20.694Z,1744
2016-05-15T04:32:06.166Z,1696
2016-05-15T04:33:20.340Z,1592
2016-05-15T04:34:06.234Z,1392
2016-05-15T04:35:06.408Z,1152
2016-05-15T04:36:20.598Z,1008
2016-05-15T04:37:06.664Z,1032
2016-05-15T04:38:06.135Z,1172
2016-05-15T04:39:20.497Z,1532
2016-05-15T04:40:06.375Z,1804
2016-05-15T04:41:06.330Z,2088
2016-05-15T04:42:20.427Z,2572
2016-05-15T04:43:06.446Z,2448
2016-05-15T04:44:06.494Z,2156
2016-05-15T04:45:06.497Z,2084
2016-05-15T04:46:06.749Z,2308
2016-05-15T04:47:06.566Z,2328
2016-05-15T04:49:06.821Z,1936
2016-05-15T04:50:06.886Z,1816
2016-05-15T04:51:21.107Z,1704
2016-05-15T04:53:06.738Z,1796
2016-05-15T04:54:07.006Z,1844
2016-05-15T04:55:06.853Z,1920
2016-05-15T04:57:21.077Z,2296
2016-05-15T04:58:06.767Z,2364
2016-05-15T04:59:06.942Z,2516
2016-05-15T05:00:21.319Z,2808
2016-05-15T05:01:07.212Z,2804
2016-05-15T05:02:07.872Z,2620
2016-05-15T05:03:21.280Z,1676
2016-05-15T05:04:07.799Z,1468
2016-05-15T05:05:07.833Z,1532
2016-05-15T05:06:07.038Z,1628
2016-05-15T05:07:21.807Z,1884
2016-05-15T05:08:07.216Z,2060
2016-05-15T05:09:07.671Z,2220
2016-05-15T05:10:21.472Z,2360
2016-05-15T05:11:07.536Z,2384
2016-05-15T05:12:07.336Z,2448
2016-05-15T05:14:07.263Z,2472
2016-05-15T05:15:07.266Z,2224
2016-05-15T05:16:07.846Z,2256
2016-05-15T05:17:07.474Z,2332
2016-05-15T05:18:07.540Z,2256
2016-05-15T05:19:22.230Z,2328
2016-05-15T05:20:07.466Z,2440
2016-05-15T05:21:07.657Z,2664
2016-05-15T05:22:07.629Z,3004
2016-05-15T05:23:07.662Z,2820
2016-05-15T05:24:07.696Z,2560
2016-05-15T05:25:07.964Z,2660
2016-05-15T05:26:07.593Z,2820
2016-05-15T05:27:07.985Z,3024
2016-05-15T05:28:07.487Z,2968
2016-05-15T05:29:07.695Z,2792
2016-05-15T05:30:07.728Z,2876
2016-05-15T05:31:07.917Z,3108
2016-05-15T05:32:07.795Z,3344
2016-05-15T05:33:07.831Z,3500
2016-05-15T05:34:08.317Z,3632
2016-05-15T05:35:08.022Z,3956
2016-05-15T05:36:08.073Z,4244
2016-05-15T05:37:07.794Z,4128
2016-05-15T05:38:08.139Z,4068
2016-05-15T05:39:08.158Z,4032
2016-05-15T05:40:08.177Z,3916
2016-05-15T05:42:22.400Z,3948
2016-05-15T05:43:08.278Z,4084
2016-05-15T05:44:08.313Z,4248
2016-05-15T05:45:08.362Z,4064
2016-05-15T05:46:08.380Z,3952
2016-05-15T05:47:08.399Z,3788
2016-05-15T05:48:08.433Z,3896
2016-05-15T05:49:08.326Z,4960
2016-05-15T05:50:08.501Z,5992
2016-05-15T05:51:08.535Z,7040
2016-05-15T05:52:08.552Z,7712
2016-05-15T05:53:08.430Z,8668
2016-05-15T05:54:08.621Z,9484
2016-05-15T05:55:08.654Z,9960
2016-05-15T05:56:08.673Z,9520
2016-05-15T05:57:08.723Z,9256
2016-05-15T05:58:08.600Z,7420
2016-05-15T05:59:08.790Z,6320
2016-05-15T06:00:08.792Z,6284
2016-05-15T06:01:09.046Z,6416
2016-05-15T06:02:08.720Z,6780
2016-05-15T06:03:08.926Z,7084
2016-05-15T06:04:09.585Z,7080
2016-05-15T06:05:08.978Z,7024
2016-05-15T06:06:09.012Z,7512
2016-05-15T06:07:09.031Z,7736
2016-05-15T06:08:09.064Z,7372
2016-05-15T06:09:08.958Z,7644
2016-05-15T06:10:09.116Z,7728
2016-05-15T06:11:08.995Z,7672
2016-05-15T06:12:09.200Z,7636
2016-05-15T06:13:09.219Z,8344
2016-05-15T06:14:09.252Z,8884
2016-05-15T06:15:09.146Z,9408
2016-05-15T06:16:09.321Z,10016
2016-05-15T06:17:09.213Z,9008
2016-05-15T06:18:09.233Z,8672
2016-05-15T06:19:09.532Z,7824
2016-05-15T06:20:09.456Z,6152
2016-05-15T06:21:09.475Z,6740
2016-05-15T06:22:09.524Z,7580
2016-05-15T06:23:09.557Z,6632
2016-05-15T06:24:09.576Z,7376
2016-05-15T06:25:09.610Z,7024
2016-05-15T06:26:09.488Z,7796
2016-05-15T06:27:09.521Z,7508
2016-05-15T06:28:09.399Z,6572
2016-05-15T06:29:09.777Z,5468
2016-05-15T06:30:09.764Z,4524
2016-05-15T06:31:09.798Z,4628
2016-05-15T06:32:09.832Z,5644
2016-05-15T06:33:09.882Z,6880
2016-05-15T06:34:10.197Z,6372
2016-05-15T06:35:09.809Z,6020
2016-05-15T06:36:09.968Z,5920
2016-05-15T06:37:09.689Z,5820
2016-05-15T06:38:10.036Z,5024
2016-05-15T06:39:10.069Z,5008
2016-05-15T06:40:10.104Z,5424
2016-05-15T06:41:10.122Z,5544
2016-05-15T06:42:09.999Z,5268
2016-05-15T06:43:10.206Z,5656
2016-05-15T06:44:10.239Z,6880
2016-05-15T06:45:10.274Z,8460
2016-05-15T06:46:10.135Z,9268
2016-05-15T06:47:10.326Z,9576
2016-05-15T06:48:10.375Z,8420
2016-05-15T06:49:10.565Z,8412
2016-05-15T06:50:10.428Z,9168
2016-05-15T06:51:10.446Z,7820
2016-05-15T06:52:10.542Z,8188
2016-05-15T06:53:10.529Z,7104
2016-05-15T06:54:10.563Z,7916
2016-05-15T06:55:10.613Z,8820
2016-05-15T06:56:10.631Z,7176
2016-05-15T06:57:10.493Z,6836
2016-05-15T06:58:10.684Z,8496
2016-05-15T06:59:10.717Z,8612
2016-05-15T07:00:10.595Z,10008
2016-05-15T07:01:10.785Z,11580
2016-05-15T07:02:10.804Z,13648
2016-05-15T07:03:10.853Z,11676
2016-05-15T07:04:11.200Z,13164
2016-05-15T07:05:10.921Z,13896
2016-05-15T07:06:10.939Z,16576
2016-05-15T07:07:10.832Z,17408
2016-05-15T07:08:10.867Z,14352
2016-05-15T07:09:11.056Z,13536
2016-05-15T07:10:10.934Z,11908
2016-05-15T07:11:11.108Z,10940
2016-05-15T07:12:11.143Z,9892
2016-05-15T07:13:11.177Z,9944
2016-05-15T07:14:11.226Z,13876
2016-05-15T07:15:11.089Z,15256
2016-05-15T07:16:11.138Z,14760
2016-05-15T07:17:11.313Z,14736
2016-05-15T07:18:11.363Z,14460
2016-05-15T07:19:11.396Z,12560
2016-05-15T07:20:11.258Z,9524
2016-05-15T07:21:11.448Z,9256
2016-05-15T07:22:11.482Z,9752
2016-05-15T07:23:11.360Z,11696
2016-05-15T07:24:11.550Z,11488
2016-05-15T07:25:11.427Z,10060
2016-05-15T07:26:11.493Z,10268
2016-05-15T07:27:11.652Z,9372
2016-05-15T07:28:11.529Z,10496
2016-05-15T07:29:11.563Z,10288
2016-05-15T07:30:11.754Z,11336
2016-05-15T07:31:11.476Z,13032
2016-05-15T07:32:12.009Z,13404
2016-05-15T07:33:11.699Z,12152
2016-05-15T07:34:11.906Z,13016
2016-05-15T07:35:11.923Z,16224
2016-05-15T07:36:11.956Z,18592
2016-05-15T07:37:11.992Z,17760
2016-05-15T07:38:12.041Z,17760
2016-05-15T07:39:12.095Z,18208
2016-05-15T07:40:12.141Z,16608
2016-05-15T07:41:12.235Z,12864
2016-05-15T07:42:12.327Z,14964
2016-05-15T07:43:12.404Z,14564
2016-05-15T07:44:12.453Z,12028
2016-05-15T07:45:12.503Z,10176
2016-05-15T07:46:12.553Z,32384
2016-05-15T07:47:12.821Z,35008
2016-05-15T07:48:12.651Z,19136
2016-05-15T07:49:13.415Z,23968
2016-05-15T07:50:12.736Z,11168
2016-05-15T07:51:12.760Z,17600
2016-05-15T07:52:12.814Z,57344
2016-05-15T07:53:12.714Z,71072
2016-05-15T07:54:12.908Z,52768
2016-05-15T07:55:13.255Z,40608
2016-05-15T07:56:12.995Z,69216
2016-05-15T07:57:12.983Z,22400
2016-05-15T07:58:13.035Z,18016
2016-05-15T07:59:13.070Z,22368
2016-05-15T08:00:12.949Z,23296
2016-05-15T08:01:13.140Z,29056
2016-05-15T08:02:13.190Z,22816
2016-05-15T08:03:13.209Z,15408
2016-05-15T08:04:13.618Z,17216
2016-05-15T08:05:13.121Z,15128
2016-05-15T08:06:13.343Z,14620
2016-05-15T08:07:13.207Z,13860
2016-05-15T08:08:13.241Z,14600
2016-05-15T08:09:13.274Z,13092
2016-05-15T08:10:13.325Z,12868
2016-05-15T08:11:13.343Z,15912
2016-05-15T08:12:13.376Z,17952
2016-05-15T08:13:13.410Z,18880
2016-05-15T08:14:13.616Z,24480
2016-05-15T08:15:13.650Z,21504
2016-05-15T08:16:13.527Z,39040
2016-05-15T08:17:13.734Z,26816
2016-05-15T08:18:13.752Z,29920
2016-05-15T08:19:13.879Z,74400
2016-05-15T08:20:13.835Z,14800
2016-05-15T08:21:13.698Z,13864
2016-05-15T08:22:13.748Z,18144
2016-05-15T08:23:13.953Z,9880
2016-05-15T08:24:14.065Z,86208
2016-05-15T08:25:14.006Z,79200
2016-05-15T08:26:14.039Z,75648
2016-05-15T08:27:14.073Z,82208
2016-05-15T08:28:14.138Z,20704
2016-05-15T08:29:14.017Z,14200
2016-05-15T08:30:14.190Z,92800
2016-05-15T08:31:14.255Z,25952
2016-05-15T08:32:14.258Z,77984
2016-05-15T08:33:14.152Z,16000
2016-05-15T08:34:14.295Z,42848
2016-05-15T08:35:14.641Z,81088
2016-05-15T08:36:14.411Z,91200
2016-05-15T08:37:14.444Z,81952
2016-05-15T08:38:14.493Z,45856
2016-05-15T08:39:14.356Z,23744
2016-05-15T08:40:14.405Z,40384
2016-05-15T08:41:14.454Z,19680
2016-05-15T08:42:14.644Z,18240
2016-05-15T08:43:14.585Z,20416
2016-05-15T08:44:14.713Z,20672
2016-05-15T08:45:14.449Z,22752
2016-05-15T08:46:14.655Z,13800
2016-05-15T08:47:14.846Z,10104
2016-05-15T08:48:14.738Z,7528
2016-05-15T08:49:15.320Z,5636
2016-05-15T08:50:14.963Z,5492
2016-05-15T08:51:14.997Z,6128
2016-05-15T08:52:14.874Z,6388
2016-05-15T08:53:15.081Z,9540
2016-05-15T08:54:15.114Z,33088
2016-05-15T08:55:14.992Z,93568
2016-05-15T08:56:14.729Z,94048
2016-05-15T08:57:15.232Z,10820
2016-05-15T08:58:15.265Z,39424
2016-05-15T08:59:15.331Z,60160
2016-05-15T09:00:15.193Z,48768
2016-05-15T09:01:15.211Z,45536
2016-05-15T09:02:15.417Z,51936
2016-05-15T09:03:15.311Z,65024
2016-05-15T09:04:15.344Z,76768
2016-05-15T09:05:15.692Z,69568
2016-05-15T09:06:15.569Z,80992
2016-05-15T09:07:15.602Z,13612
2016-05-15T09:08:15.667Z,22304
2016-05-15T09:09:15.373Z,9100
2016-05-15T09:10:15.735Z,7088
2016-05-15T09:11:15.770Z,49088
2016-05-15T09:12:15.663Z,30272
2016-05-15T09:13:15.852Z,73024
2016-05-15T09:14:15.888Z,80992
2016-05-15T09:15:15.921Z,81440
2016-05-15T09:16:15.954Z,10664
2016-05-15T09:17:16.004Z,60672
2016-05-15T09:18:16.039Z,54880
2016-05-15T09:19:16.104Z,39712
2016-05-15T09:20:16.153Z,24768
2016-05-15T09:21:16.015Z,28128
2016-05-15T09:22:16.048Z,12900
2016-05-15T09:23:16.240Z,11972
2016-05-15T09:24:16.273Z,11936
2016-05-15T09:25:16.323Z,10068
2016-05-15T09:26:16.357Z,7992
2016-05-15T09:27:16.390Z,7740
2016-05-15T09:28:16.440Z,7852
2016-05-15T09:29:16.474Z,7816
2016-05-15T09:30:16.508Z,10256
2016-05-15T09:31:16.573Z,14204
2016-05-15T09:32:16.451Z,11212
2016-05-15T09:33:16.641Z,12684
2016-05-15T09:34:16.956Z,13500
2016-05-15T09:35:17.194Z,12272
2016-05-15T09:36:16.774Z,7580
2016-05-15T09:37:16.636Z,9312
2016-05-15T09:38:16.811Z,14008
2016-05-15T09:39:16.705Z,22656
2016-05-15T09:40:16.738Z,38272
2016-05-15T09:41:16.944Z,14100
2016-05-15T09:42:16.822Z,8408
2016-05-15T09:43:17.011Z,6628
2016-05-15T09:44:16.733Z,6648
2016-05-15T09:45:16.766Z,7016
2016-05-15T09:46:17.114Z,5984
2016-05-15T09:47:17.007Z,3976
2016-05-15T09:48:17.025Z,3264
2016-05-15T09:49:17.074Z,3608
2016-05-15T09:50:17.874Z,4260
2016-05-15T09:51:17.143Z,3836
2016-05-15T09:52:17.333Z,3612
2016-05-15T09:53:17.367Z,3532
2016-05-15T09:54:17.260Z,3728
2016-05-15T09:55:17.434Z,4284
2016-05-15T09:56:17.312Z,4432
2016-05-15T09:57:17.503Z,4688
2016-05-15T09:58:17.536Z,4956
2016-05-15T09:59:17.587Z,4592
2016-05-15T10:00:17.464Z,4324
2016-05-15T10:01:17.498Z,4240
2016-05-15T10:02:17.531Z,4980
2016-05-15T10:03:17.706Z,6316
2016-05-15T10:04:18.068Z,8672
2016-05-15T10:05:17.992Z,11920
2016-05-15T10:06:17.823Z,14332
2016-05-15T10:07:17.889Z,15532
2016-05-15T10:08:17.892Z,14160
2016-05-15T10:09:17.753Z,14472
2016-05-15T10:10:17.943Z,16800
2016-05-15T10:11:17.836Z,19520
2016-05-15T10:12:17.872Z,22752
2016-05-15T10:13:17.905Z,25152
2016-05-15T10:14:17.798Z,29088
2016-05-15T10:15:18.130Z,31136
2016-05-15T10:16:18.147Z,89504
2016-05-15T10:17:18.025Z,91328
2016-05-15T10:18:18.059Z,62208
2016-05-15T10:19:18.422Z,79872
2016-05-15T10:20:18.143Z,84992
2016-05-15T10:21:18.177Z,92512
2016-05-15T10:22:18.366Z,75872
2016-05-15T10:23:18.384Z,77184
2016-05-15T10:24:18.435Z,71584
2016-05-15T10:25:18.468Z,73856
2016-05-15T10:26:18.502Z,43072
2016-05-15T10:27:18.379Z,82688
2016-05-15T10:28:18.711Z,80704
2016-05-15T10:29:18.620Z,90208
2016-05-15T10:30:18.654Z,111648
2016-05-15T10:31:18.750Z,88640
2016-05-15T10:32:18.753Z,85248
2016-05-15T10:33:18.771Z,83968
2016-05-15T10:34:18.649Z,78528
2016-05-15T10:35:18.917Z,77408
2016-05-15T10:36:18.747Z,74752
2016-05-15T10:37:18.923Z,71296
2016-05-15T10:38:18.973Z,65760
2016-05-15T10:39:19.022Z,63040
2016-05-15T10:40:19.055Z,65088
2016-05-15T10:41:18.950Z,55392
2016-05-15T10:42:19.155Z,83840
2016-05-15T10:43:19.017Z,95360
2016-05-15T10:44:19.222Z,103264
2016-05-15T10:45:19.257Z,108224
2016-05-15T10:46:19.306Z,98080
2016-05-15T10:47:18.872Z,107008
2016-05-15T10:48:19.233Z,49792
2016-05-15T10:49:19.439Z,89664
2016-05-15T10:50:19.707Z,94848
2016-05-15T10:51:19.524Z,28896
2016-05-15T10:52:19.416Z,50816
2016-05-15T10:53:19.621Z,28960
2016-05-15T10:54:19.499Z,7688
2016-05-15T10:55:19.533Z,5532
2016-05-15T10:56:19.740Z,4004
2016-05-15T10:57:19.648Z,1808
2016-05-15T10:58:19.823Z,1720
2016-05-15T10:59:19.887Z,2208
2016-05-15T11:00:19.907Z,2572
2016-05-15T11:01:19.784Z,3416
2016-05-15T11:02:19.974Z,4392
2016-05-15T11:03:20.023Z,5172
2016-05-15T11:04:20.074Z,5520
2016-05-15T11:05:20.106Z,6800
2016-05-15T11:06:20.142Z,8028
2016-05-15T11:07:20.034Z,9804
2016-05-15T11:08:20.225Z,12732
2016-05-15T11:09:20.258Z,15112
2016-05-15T11:10:20.293Z,20256
2016-05-15T11:11:20.327Z,17440
2016-05-15T11:12:20.376Z,19168
2016-05-15T11:13:20.410Z,60544
2016-05-15T11:14:20.460Z,108992
2016-05-15T11:15:20.462Z,91776
2016-05-15T11:16:20.809Z,93600
2016-05-15T11:17:20.546Z,85536
2016-05-15T11:18:20.439Z,79392
2016-05-15T11:19:20.957Z,76384
2016-05-15T11:20:20.522Z,74816
2016-05-15T11:21:20.713Z,72480
2016-05-15T11:22:20.434Z,80800
2016-05-15T11:23:20.640Z,10908
2016-05-15T11:24:20.690Z,8436
2016-05-15T11:25:20.739Z,7600
2016-05-15T11:26:20.913Z,12024
2016-05-15T11:27:20.948Z,69248
2016-05-15T11:28:20.856Z,98208
2016-05-15T11:29:20.875Z,24960
2016-05-15T11:30:21.065Z,10284
2016-05-15T11:31:21.146Z,8768
2016-05-15T11:32:21.164Z,7948
2016-05-15T11:33:21.182Z,8356
2016-05-15T11:34:22.482Z,7440
2016-05-15T11:35:21.173Z,7576
2016-05-15T11:36:21.300Z,22944
2016-05-15T11:37:21.584Z,106496
2016-05-15T11:38:21.227Z,68480
2016-05-15T11:39:21.433Z,80320
2016-05-15T11:40:21.467Z,28352
2016-05-15T11:41:21.501Z,10456
2016-05-15T11:42:21.535Z,7520
2016-05-15T11:43:21.756Z,6496
2016-05-15T11:44:21.461Z,7948
2016-05-15T11:45:21.653Z,7644
2016-05-15T11:46:21.702Z,8960
2016-05-15T11:47:21.736Z,38400
2016-05-15T11:48:21.816Z,34464
2016-05-15T11:49:22.116Z,44864
2016-05-15T11:50:21.727Z,17664
2016-05-15T11:51:21.888Z,11436
2016-05-15T11:52:21.921Z,9108
2016-05-15T11:53:21.971Z,9464
2016-05-15T11:54:22.098Z,9904
2016-05-15T11:55:21.882Z,9492
2016-05-15T11:56:22.228Z,9068
2016-05-15T11:57:21.951Z,7696
2016-05-15T11:58:21.985Z,7124
2016-05-15T11:59:22.190Z,6944
2016-05-15T12:00:22.208Z,8008
2016-05-15T12:01:22.117Z,9248
2016-05-15T12:02:22.292Z,10528
2016-05-15T12:03:22.185Z,11612
2016-05-15T12:04:23.032Z,13172
2016-05-15T12:05:22.284Z,15068
2016-05-15T12:06:22.459Z,19296
2016-05-15T12:07:22.320Z,19488
2016-05-15T12:08:22.511Z,21664
2016-05-15T12:09:22.545Z,38816
2016-05-15T12:10:22.579Z,20992
2016-05-15T12:11:22.613Z,18880
2016-05-15T12:12:22.491Z,17888
2016-05-15T12:13:22.681Z,18336
2016-05-15T12:14:22.575Z,16096
2016-05-15T12:15:22.764Z,14644
2016-05-15T12:16:22.642Z,13552
2016-05-15T12:17:22.832Z,14240
2016-05-15T12:18:22.866Z,13980
2016-05-15T12:19:22.977Z,13628
2016-05-15T12:20:23.074Z,15012
2016-05-15T12:21:22.969Z,16320
2016-05-15T12:22:22.861Z,14292
2016-05-15T12:23:23.052Z,13592
2016-05-15T12:24:23.101Z,13308
2016-05-15T12:25:22.963Z,11916
2016-05-15T12:26:22.996Z,10276
2016-05-15T12:27:23.188Z,9500
2016-05-15T12:28:23.221Z,9556
2016-05-15T12:29:23.271Z,10028
2016-05-15T12:30:22.976Z,10568
2016-05-15T12:31:23.167Z,11588
2016-05-15T12:32:23.216Z,11676
2016-05-15T12:33:23.251Z,10532
2016-05-15T12:34:23.440Z,10120
2016-05-15T12:35:23.709Z,10576
2016-05-15T12:36:23.508Z,12700
2016-05-15T12:37:23.386Z,14296
2016-05-15T12:38:23.576Z,14792
2016-05-15T12:39:23.454Z,14244
2016-05-15T12:40:23.629Z,12684
2016-05-15T12:41:23.709Z,11468
2016-05-15T12:42:23.712Z,11080
2016-05-15T12:43:23.745Z,11292
2016-05-15T12:44:23.780Z,11728
2016-05-15T12:45:23.813Z,12164
2016-05-15T12:46:23.848Z,13728
2016-05-15T12:47:23.741Z,15512
2016-05-15T12:48:23.916Z,31712
2016-05-15T12:49:24.356Z,20096
2016-05-15T12:50:24.030Z,19136
2016-05-15T12:51:24.033Z,24640
2016-05-15T12:52:24.066Z,52608
2016-05-15T12:53:24.085Z,14384
2016-05-15T12:54:24.135Z,16200
2016-05-15T12:55:24.013Z,17344
2016-05-15T12:56:24.202Z,49472
2016-05-15T12:57:24.096Z,45472
2016-05-15T12:58:24.286Z,56352
2016-05-15T12:59:24.164Z,76960
2016-05-15T13:00:24.354Z,76672
2016-05-15T13:01:24.248Z,75840
2016-05-15T13:02:24.265Z,80672
2016-05-15T13:03:24.471Z,88960
2016-05-15T13:04:24.348Z,53568
2016-05-15T13:05:24.259Z,45696
2016-05-15T13:06:24.604Z,57824
2016-05-15T13:07:24.623Z,22880
2016-05-15T13:08:24.672Z,18976
2016-05-15T13:09:24.550Z,20064
2016-05-15T13:10:24.739Z,11036
2016-05-15T13:11:24.758Z,6928
2016-05-15T13:12:24.809Z,4872
2016-05-15T13:13:24.858Z,3684
2016-05-15T13:14:24.579Z,3252
2016-05-15T13:15:24.925Z,3228
2016-05-15T13:16:24.959Z,2948
2016-05-15T13:17:24.994Z,2876
2016-05-15T13:18:25.044Z,2448
2016-05-15T13:19:25.483Z,2328
2016-05-15T13:20:25.517Z,2272
2016-05-15T13:21:25.144Z,2216
2016-05-15T13:22:25.194Z,2184
2016-05-15T13:23:25.244Z,2276
2016-05-15T13:24:25.262Z,2388
2016-05-15T13:25:25.297Z,3072
2016-05-15T13:26:25.471Z,3880
2016-05-15T13:27:25.363Z,4324
2016-05-15T13:28:25.398Z,4624
2016-05-15T13:29:25.432Z,4936
2016-05-15T13:30:25.309Z,5268
2016-05-15T13:31:25.516Z,5528
2016-05-15T13:32:25.393Z,5752
2016-05-15T13:33:25.568Z,5768
2016-05-15T13:34:25.523Z,5796
2016-05-15T13:35:25.651Z,5960
2016-05-15T13:36:25.529Z,6132
2016-05-15T13:37:25.719Z,6456
2016-05-15T13:38:25.753Z,6592
2016-05-15T13:39:25.631Z,6964
2016-05-15T13:40:25.665Z,7628
2016-05-15T13:41:25.855Z,8236
2016-05-15T13:42:25.733Z,9736
2016-05-15T13:43:25.922Z,11440
2016-05-15T13:44:25.957Z,15556
2016-05-15T13:45:25.991Z,16320
2016-05-15T13:46:25.712Z,17408
2016-05-15T13:47:26.059Z,17056
2016-05-15T13:48:26.092Z,59328
2016-05-15T13:49:26.033Z,71968
2016-05-15T13:50:26.863Z,11612
2016-05-15T13:51:25.882Z,11436
2016-05-15T13:52:26.244Z,46816
2016-05-15T13:53:26.277Z,23552
2016-05-15T13:54:25.983Z,14528
2016-05-15T13:55:26.174Z,11208
2016-05-15T13:56:26.363Z,9692
2016-05-15T13:57:26.413Z,8580
2016-05-15T13:58:26.447Z,6984
2016-05-15T13:59:33.029Z,8508